Terminal Aerodrome Forecast
Issued by NWS Grand Forks, ND

Home | Current Version | Previous Version | Graphics & Text | Print | Product List | Glossary On
Versions: 1 2 3 4 5 6 7 8 9 10 11 12 13 14 15 16 17 18 19 20 21 22
115
FTUS43 KFGF 051138
TAFFAR
TAF
KFAR 051138Z 0512/0612 11005KT P6SM BKN120
     FM052000 08007KT P6SM BKN008
     FM052100 07007KT 3/4SM -SN BKN003
     FM060000 28007KT 1 1/2SM -SN OVC008
     FM060200 25010KT 3SM -SN OVC015
     FM060300 24012KT P6SM OVC015
     FM060500 24013G21KT 4SM -SN OVC015
     FM060900 27016KT 4SM -SN OVC008
     FM061000 28017KT 3SM -SN BKN010=

USA.gov is the U.S. government's official web portal to all federal, state and local government web resources and services.